Time;durP1;ratioP1;P1;durP2;ratioP2;P2;SDS_P1;SDS_P2;PMS_P1;PMS_P2;Temp;Humidity;BMP_temperature;BMP_pressure;BME280_temperature;BME280_humidity;BME280_pressure;Samples;Min_cycle;Max_cycle;Signal;HPM_P1;HPM_P2
2023/05/17 00:02:23;;;;;;;5.47;2.40;;;;;;;;;;7371963;19;20007;-74
2023/05/17 00:04:49;;;;;;;6.70;2.40;;;;;;;;;;7372883;19;20034;-74
2023/05/17 00:07:14;;;;;;;6.35;2.45;;;;;;;;;;7370760;19;20032;-74
2023/05/17 00:09:40;;;;;;;7.65;2.50;;;;;;;;;;7392443;19;20689;-74
2023/05/17 00:12:05;;;;;;;9.40;2.58;;;;;;;;;;7374223;19;20403;-74
2023/05/17 00:14:30;;;;;;;7.25;2.38;;;;;;;;;;7386394;19;20070;-73
2023/05/17 00:16:56;;;;;;;5.22;2.58;;;;;;;;;;7388025;19;20049;-74
2023/05/17 00:19:21;;;;;;;6.28;2.55;;;;;;;;;;7392322;19;19999;-74
2023/05/17 00:21:46;;;;;;;6.20;2.78;;;;;;;;;;7420512;19;19999;-74
2023/05/17 00:24:12;;;;;;;5.93;2.70;;;;;;;;;;7400645;19;20009;-75
2023/05/17 00:26:37;;;;;;;8.30;2.60;;;;;;;;;;7391688;19;20073;-74
2023/05/17 00:29:02;;;;;;;7.07;2.50;;;;;;;;;;7370605;19;20018;-75
2023/05/17 00:31:28;;;;;;;7.60;2.70;;;;;;;;;;7372231;19;20007;-74
2023/05/17 00:33:53;;;;;;;6.95;2.78;;;;;;;;;;7393025;19;20352;-74
2023/05/17 00:36:18;;;;;;;6.10;2.50;;;;;;;;;;7370394;19;20364;-74
2023/05/17 00:38:44;;;;;;;6.57;2.90;;;;;;;;;;7370183;19;20099;-74
2023/05/17 00:41:10;;;;;;;6.07;2.78;;;;;;;;;;7371990;19;20051;-74
2023/05/17 00:43:35;;;;;;;9.75;2.60;;;;;;;;;;7372521;19;20002;-74
2023/05/17 00:46:01;;;;;;;10.60;3.08;;;;;;;;;;7393013;19;20031;-75
2023/05/17 00:48:28;;;;;;;8.70;2.85;;;;;;;;;;7368649;19;20007;-74
2023/05/17 00:50:54;;;;;;;6.57;2.60;;;;;;;;;;7370489;19;20026;-74
2023/05/17 00:53:21;;;;;;;7.65;2.70;;;;;;;;;;7371231;19;20579;-74
2023/05/17 00:55:46;;;;;;;5.90;2.35;;;;;;;;;;7370826;19;20006;-74
2023/05/17 00:58:12;;;;;;;8.10;2.58;;;;;;;;;;7366773;19;20531;-75
2023/05/17 01:00:37;;;;;;;8.02;2.72;;;;;;;;;;7392034;19;20036;-74
2023/05/17 01:03:03;;;;;;;9.98;2.83;;;;;;;;;;7369511;19;19999;-75
2023/05/17 01:05:29;;;;;;;8.32;2.75;;;;;;;;;;7371419;19;20011;-75
2023/05/17 01:07:54;;;;;;;7.57;2.60;;;;;;;;;;7367828;19;20010;-75
2023/05/17 01:10:27;;;;;;;5.10;2.40;;;;;;;;;;7370713;19;20523;-75
2023/05/17 01:13:17;;;;;;;6.15;2.35;;;;;;;;;;7391825;19;20010;-74
2023/05/17 01:15:47;;;;;;;5.30;2.60;;;;;;;;;;7370096;19;20006;-74
2023/05/17 01:18:22;;;;;;;4.43;2.47;;;;;;;;;;7368385;19;20015;-74
2023/05/17 01:20:49;;;;;;;9.13;2.72;;;;;;;;;;7368754;19;20006;-74
2023/05/17 01:23:27;;;;;;;6.82;2.85;;;;;;;;;;7369357;19;20006;-74
2023/05/17 01:26:16;;;;;;;7.80;2.65;;;;;;;;;;7369656;19;20120;-74
2023/05/17 01:28:51;;;;;;;8.73;2.70;;;;;;;;;;7367806;19;20097;-74
2023/05/17 01:31:17;;;;;;;9.65;3.13;;;;;;;;;;7369116;19;20449;-74
2023/05/17 01:33:43;;;;;;;10.00;3.20;;;;;;;;;;7391399;19;19998;-74
2023/05/17 01:36:08;;;;;;;8.27;2.95;;;;;;;;;;7369112;19;20143;-74
2023/05/17 01:38:34;;;;;;;6.93;3.38;;;;;;;;;;7368473;19;20114;-74
2023/05/17 01:41:14;;;;;;;8.70;3.10;;;;;;;;;;7369216;19;20484;-74
2023/05/17 01:43:46;;;;;;;9.10;3.08;;;;;;;;;;7369767;19;20006;-74
2023/05/17 01:46:23;;;;;;;7.97;2.65;;;;;;;;;;7364642;19;20043;-74
2023/05/17 01:48:55;;;;;;;9.35;3.10;;;;;;;;;;7388288;19;20002;-74
2023/05/17 01:51:27;;;;;;;9.05;2.85;;;;;;;;;;7369096;19;20007;-74
2023/05/17 01:54:00;;;;;;;11.32;3.00;;;;;;;;;;7368205;19;20081;-74
2023/05/17 01:56:33;;;;;;;7.75;2.92;;;;;;;;;;7369134;19;20370;-74
2023/05/17 01:59:00;;;;;;;7.72;3.13;;;;;;;;;;7367917;19;20014;-74
2023/05/17 02:01:27;;;;;;;8.38;3.13;;;;;;;;;;7369452;19;20014;-74
2023/05/17 02:03:53;;;;;;;7.68;3.08;;;;;;;;;;7391277;19;20010;-74
2023/05/17 02:06:18;;;;;;;7.22;2.63;;;;;;;;;;7369449;19;20465;-74
2023/05/17 02:08:43;;;;;;;8.77;2.95;;;;;;;;;;7366020;19;20538;-75
2023/05/17 02:11:09;;;;;;;9.20;2.55;;;;;;;;;;7369040;19;20042;-74
2023/05/17 02:13:34;;;;;;;7.45;2.60;;;;;;;;;;7370433;19;20014;-74
2023/05/17 02:16:00;;;;;;;6.32;2.20;;;;;;;;;;7391508;19;20066;-74
2023/05/17 02:18:26;;;;;;;9.20;2.63;;;;;;;;;;7368167;19;20013;-74
2023/05/17 02:20:51;;;;;;;6.40;2.67;;;;;;;;;;7368789;19;20014;-74
2023/05/17 02:23:17;;;;;;;6.72;2.45;;;;;;;;;;7369566;19;20011;-74
2023/05/17 02:25:42;;;;;;;8.50;3.00;;;;;;;;;;7368307;19;20018;-74
2023/05/17 02:28:07;;;;;;;7.25;2.55;;;;;;;;;;7365520;19;20787;-74
2023/05/17 02:30:33;;;;;;;8.32;2.65;;;;;;;;;;7388175;19;20010;-74
2023/05/17 02:32:58;;;;;;;7.28;2.60;;;;;;;;;;7368257;19;20003;-74
2023/05/17 02:35:24;;;;;;;7.03;2.47;;;;;;;;;;7369759;19;20040;-74
2023/05/17 02:37:49;;;;;;;7.07;2.45;;;;;;;;;;7368580;19;20014;-74
2023/05/17 02:40:15;;;;;;;7.93;2.70;;;;;;;;;;7372378;19;20465;-74
2023/05/17 02:42:40;;;;;;;7.18;2.33;;;;;;;;;;7393942;19;20010;-74
2023/05/17 02:45:06;;;;;;;7.68;2.20;;;;;;;;;;7370538;19;20002;-74
2023/05/17 02:47:31;;;;;;;7.15;2.63;;;;;;;;;;7371305;19;20040;-74
2023/05/17 02:49:56;;;;;;;11.82;2.50;;;;;;;;;;7368134;19;19998;-74
2023/05/17 02:52:22;;;;;;;7.22;2.58;;;;;;;;;;7370208;19;20034;-75
2023/05/17 02:54:47;;;;;;;7.38;2.50;;;;;;;;;;7391709;19;20023;-74
2023/05/17 02:57:13;;;;;;;7.78;2.35;;;;;;;;;;7366776;19;20420;-75
2023/05/17 02:59:38;;;;;;;5.80;2.30;;;;;;;;;;7371426;19;20062;-74
2023/05/17 03:02:03;;;;;;;5.78;2.40;;;;;;;;;;7368120;19;20007;-75
2023/05/17 03:04:29;;;;;;;8.15;2.45;;;;;;;;;;7371472;19;20018;-75
2023/05/17 03:06:54;;;;;;;10.63;2.63;;;;;;;;;;7399063;19;19994;-74
2023/05/17 03:09:20;;;;;;;11.45;2.90;;;;;;;;;;7372748;19;20007;-74
2023/05/17 03:11:45;;;;;;;7.10;2.70;;;;;;;;;;7374402;19;20012;-74
2023/05/17 03:14:11;;;;;;;7.50;2.80;;;;;;;;;;7373258;19;20019;-74
2023/05/17 03:16:36;;;;;;;7.97;2.63;;;;;;;;;;7374304;19;20053;-75
2023/05/17 03:19:01;;;;;;;7.90;2.42;;;;;;;;;;7399279;19;20075;-75
2023/05/17 03:21:27;;;;;;;9.63;2.53;;;;;;;;;;7375659;19;20472;-74
2023/05/17 03:23:52;;;;;;;9.05;2.88;;;;;;;;;;7375632;19;20011;-74
2023/05/17 03:26:18;;;;;;;8.77;2.67;;;;;;;;;;7372989;19;20054;-74
2023/05/17 03:28:44;;;;;;;10.20;3.00;;;;;;;;;;7373308;19;20012;-74
2023/05/17 03:31:10;;;;;;;8.48;2.30;;;;;;;;;;7375675;19;20010;-75
2023/05/17 03:33:35;;;;;;;4.68;2.25;;;;;;;;;;7399466;19;20464;-75
2023/05/17 03:36:01;;;;;;;10.13;2.78;;;;;;;;;;7376144;19;20095;-75
2023/05/17 03:38:26;;;;;;;5.78;2.30;;;;;;;;;;7371915;19;20006;-75
2023/05/17 03:40:52;;;;;;;7.82;2.40;;;;;;;;;;7372004;19;20014;-75
2023/05/17 03:43:17;;;;;;;8.02;2.65;;;;;;;;;;7371561;19;20668;-74
2023/05/17 03:45:43;;;;;;;8.00;3.00;;;;;;;;;;7395360;19;20005;-74
2023/05/17 03:48:08;;;;;;;6.28;2.83;;;;;;;;;;7371393;19;20014;-74
2023/05/17 03:50:33;;;;;;;6.97;2.92;;;;;;;;;;7370068;19;20014;-74
2023/05/17 03:52:59;;;;;;;9.82;3.15;;;;;;;;;;7371220;19;20006;-74
2023/05/17 03:55:24;;;;;;;6.43;2.67;;;;;;;;;;7372697;19;20433;-73
2023/05/17 03:57:50;;;;;;;9.05;2.90;;;;;;;;;;7392150;19;20017;-73
2023/05/17 04:00:20;;;;;;;8.45;2.83;;;;;;;;;;7372126;19;20417;-73
2023/05/17 04:02:46;;;;;;;9.32;2.80;;;;;;;;;;7372743;19;20010;-73
2023/05/17 04:05:12;;;;;;;10.13;2.63;;;;;;;;;;7373437;19;20021;-73
2023/05/17 04:07:37;;;;;;;6.45;2.40;;;;;;;;;;7370863;19;20014;-73
2023/05/17 04:10:03;;;;;;;7.55;2.78;;;;;;;;;;7392772;19;20464;-74
2023/05/17 04:12:28;;;;;;;5.53;2.67;;;;;;;;;;7372832;19;20096;-74
2023/05/17 04:14:54;;;;;;;8.63;2.90;;;;;;;;;;7371133;19;20010;-74
2023/05/17 04:17:19;;;;;;;6.38;2.83;;;;;;;;;;7371358;19;20826;-74
2023/05/17 04:19:45;;;;;;;8.98;3.17;;;;;;;;;;7373981;19;20014;-74
2023/05/17 04:22:10;;;;;;;7.25;2.60;;;;;;;;;;7374265;19;20011;-74
2023/05/17 04:24:35;;;;;;;6.70;2.42;;;;;;;;;;7395687;19;20026;-74
2023/05/17 04:27:04;;;;;;;5.32;2.50;;;;;;;;;;7370122;19;20805;-74
2023/05/17 04:29:29;;;;;;;6.00;2.50;;;;;;;;;;7370490;19;20037;-74
2023/05/17 04:31:55;;;;;;;7.75;2.85;;;;;;;;;;7371873;19;20376;-74
2023/05/17 04:34:22;;;;;;;6.07;2.35;;;;;;;;;;7372036;19;20111;-74
2023/05/17 04:36:47;;;;;;;8.07;2.50;;;;;;;;;;7391934;19;20002;-74
2023/05/17 04:39:13;;;;;;;5.65;2.35;;;;;;;;;;7370725;19;20014;-73
2023/05/17 04:41:38;;;;;;;8.02;2.67;;;;;;;;;;7372585;19;20483;-76
2023/05/17 04:44:05;;;;;;;7.10;2.70;;;;;;;;;;7369386;19;20607;-75
2023/05/17 04:46:30;;;;;;;8.63;2.63;;;;;;;;;;7369147;19;20002;-76
2023/05/17 04:48:56;;;;;;;12.32;3.40;;;;;;;;;;7387380;19;19999;-76
2023/05/17 04:51:22;;;;;;;7.78;2.88;;;;;;;;;;7367226;19;20058;-74
2023/05/17 04:53:47;;;;;;;7.03;2.95;;;;;;;;;;7370333;19;20735;-76
2023/05/17 04:56:13;;;;;;;12.27;2.80;;;;;;;;;;7370309;19;20058;-76
2023/05/17 04:58:38;;;;;;;7.47;2.60;;;;;;;;;;7370714;19;20038;-76
2023/05/17 05:01:04;;;;;;;15.88;6.85;;;;;;;;;;7388553;19;20021;-77
2023/05/17 05:03:29;;;;;;;8.73;3.10;;;;;;;;;;7391585;19;20464;-74
2023/05/17 05:05:55;;;;;;;10.30;3.05;;;;;;;;;;7374113;19;20006;-74
2023/05/17 05:08:20;;;;;;;9.63;2.70;;;;;;;;;;7370716;19;20010;-74
2023/05/17 05:10:46;;;;;;;9.93;2.95;;;;;;;;;;7371188;19;20010;-73
2023/05/17 05:13:11;;;;;;;9.23;2.78;;;;;;;;;;7371286;19;20284;-73
2023/05/17 05:15:36;;;;;;;8.50;3.20;;;;;;;;;;7391778;19;19991;-73
2023/05/17 05:18:02;;;;;;;10.95;2.72;;;;;;;;;;7362128;19;20027;-74
2023/05/17 05:20:27;;;;;;;9.50;3.20;;;;;;;;;;7366216;19;20094;-74
2023/05/17 05:22:53;;;;;;;7.95;2.80;;;;;;;;;;7368010;19;20024;-73
2023/05/17 05:25:18;;;;;;;10.18;3.35;;;;;;;;;;7370645;19;19999;-74
2023/05/17 05:27:43;;;;;;;9.23;2.95;;;;;;;;;;7384469;19;19999;-74
2023/05/17 05:30:09;;;;;;;9.75;2.90;;;;;;;;;;7369029;19;20743;-74
2023/05/17 05:32:36;;;;;;;9.57;3.33;;;;;;;;;;7369275;19;20357;-74
2023/05/17 05:35:03;;;;;;;5.70;2.75;;;;;;;;;;7369821;19;20278;-74
2023/05/17 05:37:28;;;;;;;6.95;2.53;;;;;;;;;;7367491;19;20011;-74
2023/05/17 05:39:53;;;;;;;7.50;3.70;;;;;;;;;;7392246;19;20030;-74
2023/05/17 05:42:18;;;;;;;7.93;2.70;;;;;;;;;;7368279;19;20014;-73
2023/05/17 05:44:44;;;;;;;10.32;3.10;;;;;;;;;;7369021;19;20476;-73
2023/05/17 05:47:09;;;;;;;14.05;2.90;;;;;;;;;;7358339;19;20497;-74
2023/05/17 05:49:35;;;;;;;6.30;2.80;;;;;;;;;;7361792;19;20378;-74
2023/05/17 05:52:00;;;;;;;7.45;3.60;;;;;;;;;;7385445;19;20473;-73
2023/05/17 05:54:25;;;;;;;8.18;3.03;;;;;;;;;;7370592;19;20014;-73
2023/05/17 05:56:50;;;;;;;10.13;3.05;;;;;;;;;;7370013;19;20373;-74
2023/05/17 05:59:16;;;;;;;5.72;2.72;;;;;;;;;;7368362;19;20021;-73
2023/05/17 06:01:42;;;;;;;8.88;2.75;;;;;;;;;;7369411;19;20007;-73
2023/05/17 06:04:08;;;;;;;7.45;3.00;;;;;;;;;;7369181;19;20010;-74
2023/05/17 06:06:34;;;;;;;9.77;3.13;;;;;;;;;;7390159;19;20003;-73
2023/05/17 06:08:59;;;;;;;8.00;2.78;;;;;;;;;;7366467;19;20003;-74
2023/05/17 06:11:25;;;;;;;10.80;3.20;;;;;;;;;;7369953;19;20679;-73
2023/05/17 06:13:50;;;;;;;9.80;3.03;;;;;;;;;;7369753;19;20011;-74
2023/05/17 06:16:15;;;;;;;8.80;3.25;;;;;;;;;;7374604;19;19999;-74
2023/05/17 06:18:41;;;;;;;9.68;3.35;;;;;;;;;;7417820;19;20017;-74
2023/05/17 06:21:06;;;;;;;9.88;3.45;;;;;;;;;;7396463;19;20006;-74
2023/05/17 06:23:31;;;;;;;5.90;2.67;;;;;;;;;;7395650;19;20022;-75
2023/05/17 06:25:57;;;;;;;8.77;3.00;;;;;;;;;;7395773;19;20017;-74
2023/05/17 06:28:22;;;;;;;11.02;3.00;;;;;;;;;;7367710;19;20597;-75
2023/05/17 06:30:47;;;;;;;7.53;2.90;;;;;;;;;;7390601;19;20007;-74
2023/05/17 06:33:13;;;;;;;7.95;3.30;;;;;;;;;;7366904;19;20018;-74
2023/05/17 06:35:38;;;;;;;8.77;2.90;;;;;;;;;;7368505;19;20026;-74
2023/05/17 06:38:03;;;;;;;10.30;3.42;;;;;;;;;;7367401;19;20034;-74
2023/05/17 06:40:29;;;;;;;9.63;3.45;;;;;;;;;;7377790;19;20010;-74
2023/05/17 06:42:54;;;;;;;10.20;3.38;;;;;;;;;;7398812;19;20007;-75
2023/05/17 06:45:20;;;;;;;8.57;2.92;;;;;;;;;;7374178;19;20014;-74
2023/05/17 06:47:46;;;;;;;13.18;3.08;;;;;;;;;;7374207;19;20389;-74
2023/05/17 06:50:11;;;;;;;8.15;3.05;;;;;;;;;;7374592;19;20021;-74
2023/05/17 06:52:37;;;;;;;8.75;3.03;;;;;;;;;;7374386;19;20491;-73
2023/05/17 06:55:02;;;;;;;8.77;2.85;;;;;;;;;;7396553;19;20002;-74
2023/05/17 06:57:28;;;;;;;7.47;2.58;;;;;;;;;;7371345;19;20476;-74
2023/05/17 06:59:53;;;;;;;9.75;2.85;;;;;;;;;;7374410;19;20014;-74
2023/05/17 07:02:18;;;;;;;11.48;3.13;;;;;;;;;;7373477;19;20010;-74
2023/05/17 07:04:44;;;;;;;9.48;2.60;;;;;;;;;;7373140;19;20080;-74
2023/05/17 07:07:10;;;;;;;7.07;2.63;;;;;;;;;;7371365;19;20011;-73
2023/05/17 07:09:36;;;;;;;12.05;3.53;;;;;;;;;;7393058;19;20539;-75
2023/05/17 07:12:01;;;;;;;10.10;3.03;;;;;;;;;;7372894;19;20037;-74
2023/05/17 07:14:27;;;;;;;9.55;2.80;;;;;;;;;;7372423;19;20033;-74
2023/05/17 07:16:52;;;;;;;9.55;2.80;;;;;;;;;;7373972;19;20011;-74
2023/05/17 07:19:17;;;;;;;8.00;2.80;;;;;;;;;;7373309;19;20003;-74
2023/05/17 07:21:43;;;;;;;7.80;2.80;;;;;;;;;;7395311;19;20007;-74
2023/05/17 07:24:08;;;;;;;9.45;3.22;;;;;;;;;;7372801;19;20003;-74
2023/05/17 07:26:34;;;;;;;8.80;2.88;;;;;;;;;;7372435;19;20077;-74
2023/05/17 07:28:59;;;;;;;9.13;2.78;;;;;;;;;;7372474;19;20018;-74
2023/05/17 07:31:25;;;;;;;7.70;2.63;;;;;;;;;;7376454;19;20018;-74
2023/05/17 07:33:50;;;;;;;10.55;2.92;;;;;;;;;;7398090;19;20007;-74
2023/05/17 07:36:16;;;;;;;8.15;2.63;;;;;;;;;;7374640;19;20006;-74
2023/05/17 07:38:41;;;;;;;8.07;2.60;;;;;;;;;;7374652;19;20041;-74
2023/05/17 07:41:08;;;;;;;6.88;2.50;;;;;;;;;;7374655;19;20107;-73
2023/05/17 07:43:36;;;;;;;6.50;2.50;;;;;;;;;;7373455;19;20064;-73
2023/05/17 07:46:02;;;;;;;6.45;2.90;;;;;;;;;;7395287;19;20477;-75
2023/05/17 07:48:27;;;;;;;6.90;2.47;;;;;;;;;;7371228;19;20082;-74
2023/05/17 07:50:53;;;;;;;7.93;2.20;;;;;;;;;;7370980;19;20015;-75
2023/05/17 07:53:18;;;;;;;6.97;2.40;;;;;;;;;;7371674;19;20022;-74
2023/05/17 07:55:44;;;;;;;6.13;2.30;;;;;;;;;;7371510;19;20038;-74
2023/05/17 07:58:10;;;;;;;9.52;2.92;;;;;;;;;;7369702;19;20006;-74
2023/05/17 08:00:36;;;;;;;6.57;2.20;;;;;;;;;;7395380;19;20074;-74
2023/05/17 08:03:01;;;;;;;6.85;2.28;;;;;;;;;;7371210;19;20037;-74
2023/05/17 08:05:27;;;;;;;5.38;1.98;;;;;;;;;;7372804;19;20006;-75
2023/05/17 08:07:52;;;;;;;7.80;2.40;;;;;;;;;;7370403;19;20086;-75
2023/05/17 08:10:18;;;;;;;9.52;2.50;;;;;;;;;;7372127;19;20370;-75
2023/05/17 08:12:43;;;;;;;6.68;2.00;;;;;;;;;;7394549;19;20026;-74
2023/05/17 08:15:09;;;;;;;7.60;2.13;;;;;;;;;;7370867;19;20468;-75
2023/05/17 08:17:34;;;;;;;5.68;1.75;;;;;;;;;;7371987;19;20014;-75
2023/05/17 08:20:00;;;;;;;4.55;1.90;;;;;;;;;;7372830;19;20048;-74
2023/05/17 08:22:26;;;;;;;7.93;2.38;;;;;;;;;;7372872;19;20101;-74
2023/05/17 08:24:51;;;;;;;5.85;2.15;;;;;;;;;;7394385;19;20411;-74
2023/05/17 08:27:17;;;;;;;5.80;2.03;;;;;;;;;;7369587;19;20027;-74
2023/05/17 08:29:42;;;;;;;7.28;2.20;;;;;;;;;;7370595;19;20371;-74
2023/05/17 08:32:07;;;;;;;5.50;2.08;;;;;;;;;;7371556;19;20006;-74
2023/05/17 08:34:33;;;;;;;7.05;2.33;;;;;;;;;;7370912;19;20002;-74
2023/05/17 08:36:58;;;;;;;10.20;2.45;;;;;;;;;;7392358;19;20019;-75
2023/05/17 08:39:23;;;;;;;9.43;2.50;;;;;;;;;;7370517;19;19998;-74
2023/05/17 08:41:49;;;;;;;13.77;3.13;;;;;;;;;;7371929;19;20002;-74
2023/05/17 08:44:15;;;;;;;10.25;2.38;;;;;;;;;;7372051;19;20014;-74
2023/05/17 08:46:42;;;;;;;5.03;2.10;;;;;;;;;;7371912;19;20010;-73
2023/05/17 08:49:11;;;;;;;5.38;1.80;;;;;;;;;;7369155;19;20008;-73
2023/05/17 08:51:38;;;;;;;6.72;2.10;;;;;;;;;;7393132;19;20023;-73
2023/05/17 08:54:05;;;;;;;6.07;2.30;;;;;;;;;;7370470;19;20006;-74
2023/05/17 08:56:34;;;;;;;8.48;2.72;;;;;;;;;;7371195;19;20007;-74
2023/05/17 08:59:01;;;;;;;7.25;2.58;;;;;;;;;;7372646;19;20787;-74
2023/05/17 09:01:28;;;;;;;9.88;2.33;;;;;;;;;;7370526;19;20375;-75
2023/05/17 09:03:54;;;;;;;7.57;2.30;;;;;;;;;;7388936;19;20420;-74
2023/05/17 09:06:21;;;;;;;7.47;2.45;;;;;;;;;;7369869;19;20037;-74
2023/05/17 09:08:46;;;;;;;6.57;2.40;;;;;;;;;;7366921;19;20439;-74
2023/05/17 09:11:12;;;;;;;7.88;2.50;;;;;;;;;;7370744;19;20070;-73
2023/05/17 09:13:37;;;;;;;5.90;2.40;;;;;;;;;;7370209;19;20031;-73
2023/05/17 09:16:11;;;;;;;10.00;3.03;;;;;;;;;;7390902;19;20095;-74
2023/05/17 09:18:37;;;;;;;11.05;2.67;;;;;;;;;;7368346;19;20098;-75
2023/05/17 09:21:05;;;;;;;12.20;2.92;;;;;;;;;;7368510;19;20071;-75
2023/05/17 09:23:32;;;;;;;9.70;2.95;;;;;;;;;;7369571;19;20520;-75
2023/05/17 09:26:06;;;;;;;7.60;2.55;;;;;;;;;;7370248;19;20017;-75
2023/05/17 09:28:40;;;;;;;9.82;2.72;;;;;;;;;;7367688;19;20014;-76
2023/05/17 09:31:07;;;;;;;7.70;2.30;;;;;;;;;;7369072;19;20010;-74
2023/05/17 09:33:33;;;;;;;7.30;2.85;;;;;;;;;;7391563;19;20350;-75
2023/05/17 09:36:02;;;;;;;6.25;2.63;;;;;;;;;;7368590;19;20074;-75
2023/05/17 09:38:28;;;;;;;10.00;2.60;;;;;;;;;;7367573;19;20401;-75
2023/05/17 09:40:54;;;;;;;7.95;2.80;;;;;;;;;;7368319;19;20002;-75
2023/05/17 09:43:25;;;;;;;6.95;2.78;;;;;;;;;;7369109;19;20014;-74
2023/05/17 09:45:57;;;;;;;4.50;2.55;;;;;;;;;;7390110;19;20002;-74
2023/05/17 09:48:25;;;;;;;5.43;1.90;;;;;;;;;;7366829;19;20131;-74
2023/05/17 09:50:51;;;;;;;3.65;1.90;;;;;;;;;;7368661;19;20352;-73
2023/05/17 09:53:29;;;;;;;5.28;2.10;;;;;;;;;;7368941;19;20014;-73
2023/05/17 09:56:00;;;;;;;9.57;3.20;;;;;;;;;;7369047;19;20063;-73
2023/05/17 09:58:27;;;;;;;7.60;2.63;;;;;;;;;;7366243;19;20358;-73
2023/05/17 10:00:57;;;;;;;10.32;3.13;;;;;;;;;;7391385;19;20013;-73
2023/05/17 10:03:25;;;;;;;6.82;2.70;;;;;;;;;;7370262;19;20455;-74
2023/05/17 10:05:52;;;;;;;7.80;2.55;;;;;;;;;;7369306;19;20121;-74
2023/05/17 10:08:22;;;;;;;8.57;2.58;;;;;;;;;;7362040;19;20527;-74
2023/05/17 10:10:48;;;;;;;7.53;2.78;;;;;;;;;;7366926;19;20449;-73
2023/05/17 10:13:17;;;;;;;6.75;2.10;;;;;;;;;;7366704;19;20087;-74
2023/05/17 10:15:43;;;;;;;6.35;2.47;;;;;;;;;;7395165;19;20002;-74
2023/05/17 10:18:10;;;;;;;7.63;2.78;;;;;;;;;;7371050;19;20007;-74
2023/05/17 10:20:37;;;;;;;8.48;2.78;;;;;;;;;;7374142;19;20014;-74
2023/05/17 10:23:05;;;;;;;6.93;2.55;;;;;;;;;;7374361;19;20082;-74
2023/05/17 10:25:30;;;;;;;11.52;2.70;;;;;;;;;;7376701;19;20362;-74
2023/05/17 10:27:57;;;;;;;7.20;2.60;;;;;;;;;;7394095;19;20042;-74
2023/05/17 10:30:24;;;;;;;5.38;2.35;;;;;;;;;;7374952;19;20006;-74
2023/05/17 10:32:50;;;;;;;6.82;2.65;;;;;;;;;;7375567;19;20002;-74
2023/05/17 10:35:17;;;;;;;7.35;2.72;;;;;;;;;;7375910;19;20003;-73
2023/05/17 10:37:42;;;;;;;6.32;2.42;;;;;;;;;;7373636;19;20003;-74
2023/05/17 10:40:16;;;;;;;5.38;2.05;;;;;;;;;;7375950;19;20002;-74
2023/05/17 10:42:53;;;;;;;12.18;2.75;;;;;;;;;;7397498;19;20061;-70
2023/05/17 10:45:21;;;;;;;9.13;2.70;;;;;;;;;;7375611;19;20011;-70
2023/05/17 10:47:49;;;;;;;7.50;3.00;;;;;;;;;;7373009;19;20006;-70
2023/05/17 10:50:23;;;;;;;7.25;2.60;;;;;;;;;;7378962;19;20046;-70
2023/05/17 10:52:49;;;;;;;7.75;2.58;;;;;;;;;;7376952;19;20006;-70
2023/05/17 10:55:36;;;;;;;5.22;2.33;;;;;;;;;;7374806;19;20006;-70
2023/05/17 10:58:16;;;;;;;10.52;2.80;;;;;;;;;;7393361;19;20014;-70
2023/05/17 11:00:53;;;;;;;10.95;2.70;;;;;;;;;;7376130;19;20018;-70
2023/05/17 11:03:25;;;;;;;6.57;2.17;;;;;;;;;;7374445;19;20014;-69
2023/05/17 11:06:08;;;;;;;5.97;2.47;;;;;;;;;;7374372;19;20022;-69
2023/05/17 11:08:34;;;;;;;6.45;2.20;;;;;;;;;;7372570;19;20050;-69
2023/05/17 11:11:16;;;;;;;8.00;4.35;;;;;;;;;;7378292;19;20620;-69
2023/05/17 11:13:54;;;;;;;12.68;3.47;;;;;;;;;;7381347;19;20094;-70
2023/05/17 11:16:22;;;;;;;6.70;2.67;;;;;;;;;;7373970;19;20069;-69
2023/05/17 11:18:54;;;;;;;6.40;2.45;;;;;;;;;;7393559;19;20032;-71
2023/05/17 11:21:21;;;;;;;11.13;2.50;;;;;;;;;;7372090;19;20014;-70
2023/05/17 11:23:48;;;;;;;10.32;2.67;;;;;;;;;;7374113;19;20010;-70
2023/05/17 11:26:17;;;;;;;5.82;2.58;;;;;;;;;;7371318;19;20003;-70
2023/05/17 11:28:43;;;;;;;11.23;3.15;;;;;;;;;;7372452;19;20006;-69
2023/05/17 11:31:09;;;;;;;7.78;2.75;;;;;;;;;;7375916;19;20062;-69
2023/05/17 11:33:44;;;;;;;17.73;3.10;;;;;;;;;;7411961;19;20014;-71
2023/05/17 11:36:21;;;;;;;6.82;2.88;;;;;;;;;;7391092;19;20109;-70
2023/05/17 11:38:48;;;;;;;5.82;2.30;;;;;;;;;;7389276;19;20018;-71
2023/05/17 11:41:21;;;;;;;9.25;2.70;;;;;;;;;;7389748;19;20010;-69
2023/05/17 11:43:47;;;;;;;10.00;2.35;;;;;;;;;;7386548;19;20015;-70
2023/05/17 11:46:20;;;;;;;5.45;2.50;;;;;;;;;;7386830;19;20338;-69
2023/05/17 11:48:47;;;;;;;8.27;2.67;;;;;;;;;;7405009;19;20018;-70
2023/05/17 11:51:14;;;;;;;6.07;2.58;;;;;;;;;;7383009;19;20078;-70
2023/05/17 11:53:40;;;;;;;7.55;2.50;;;;;;;;;;7389386;19;20563;-70
2023/05/17 11:56:07;;;;;;;6.32;2.50;;;;;;;;;;7379199;19;20011;-70
2023/05/17 11:58:33;;;;;;;8.38;2.72;;;;;;;;;;7377229;19;20444;-69
2023/05/17 12:00:58;;;;;;;10.38;3.17;;;;;;;;;;7400892;19;20011;-69
2023/05/17 12:03:26;;;;;;;7.68;2.67;;;;;;;;;;7381651;19;19998;-71
2023/05/17 12:06:06;;;;;;;10.85;3.25;;;;;;;;;;7379367;19;20030;-71
2023/05/17 12:08:33;;;;;;;10.25;2.85;;;;;;;;;;7376164;19;20014;-69
2023/05/17 12:10:58;;;;;;;7.00;2.30;;;;;;;;;;7377461;19;20006;-70
2023/05/17 12:13:27;;;;;;;7.10;2.35;;;;;;;;;;7379115;19;20012;-70
2023/05/17 12:15:56;;;;;;;6.93;2.13;;;;;;;;;;7398580;19;20019;-70
2023/05/17 12:18:21;;;;;;;7.75;1.90;;;;;;;;;;7374072;19;20623;-71
2023/05/17 12:20:56;;;;;;;6.82;2.83;;;;;;;;;;7374834;19;20085;-70
2023/05/17 12:23:32;;;;;;;7.82;2.10;;;;;;;;;;7373197;19;20010;-70
2023/05/17 12:26:17;;;;;;;7.43;2.25;;;;;;;;;;7374871;19;20060;-70
2023/05/17 12:28:44;;;;;;;5.10;1.92;;;;;;;;;;7371135;19;20022;-70
2023/05/17 12:31:21;;;;;;;8.07;2.28;;;;;;;;;;7372151;19;20010;-69
2023/05/17 12:33:49;;;;;;;6.72;2.25;;;;;;;;;;7393393;19;20030;-71
2023/05/17 12:36:15;;;;;;;7.07;2.30;;;;;;;;;;7370539;19;20003;-70
2023/05/17 12:38:42;;;;;;;6.32;2.10;;;;;;;;;;7371184;19;20010;-71
2023/05/17 12:41:10;;;;;;;6.55;2.10;;;;;;;;;;7371594;19;20082;-70
2023/05/17 12:43:39;;;;;;;4.70;1.92;;;;;;;;;;7371954;19;20666;-70
2023/05/17 12:46:11;;;;;;;5.57;1.95;;;;;;;;;;7381012;19;20010;-70
2023/05/17 12:48:37;;;;;;;7.07;2.05;;;;;;;;;;7391214;19;20416;-70
2023/05/17 12:51:17;;;;;;;6.63;2.30;;;;;;;;;;7371472;19;20014;-71
2023/05/17 12:53:53;;;;;;;7.10;2.03;;;;;;;;;;7372678;19;20002;-71
2023/05/17 12:56:25;;;;;;;5.45;2.00;;;;;;;;;;7373874;19;20002;-70
2023/05/17 12:59:09;;;;;;;7.45;2.20;;;;;;;;;;7376437;19;20009;-70
2023/05/17 13:01:36;;;;;;;6.65;2.10;;;;;;;;;;7384127;19;20002;-70
2023/05/17 13:04:02;;;;;;;4.90;2.17;;;;;;;;;;7408855;19;20026;-70
2023/05/17 13:06:28;;;;;;;10.52;2.58;;;;;;;;;;7387720;19;20003;-70
2023/05/17 13:09:00;;;;;;;8.25;2.38;;;;;;;;;;7386422;19;20094;-70
2023/05/17 13:11:26;;;;;;;7.50;2.65;;;;;;;;;;7389387;19;20026;-70
2023/05/17 13:13:51;;;;;;;5.30;1.90;;;;;;;;;;7385168;19;20014;-70
2023/05/17 13:16:27;;;;;;;5.03;1.90;;;;;;;;;;7375934;19;20048;-70
2023/05/17 13:18:54;;;;;;;4.68;1.90;;;;;;;;;;7396884;19;20006;-70
2023/05/17 13:21:19;;;;;;;6.40;2.22;;;;;;;;;;7380705;19;20048;-70
2023/05/17 13:23:48;;;;;;;4.90;1.95;;;;;;;;;;7369918;19;20003;-70
2023/05/17 13:26:18;;;;;;;7.95;2.55;;;;;;;;;;7368367;19;20002;-70
2023/05/17 13:28:44;;;;;;;8.85;2.13;;;;;;;;;;7364869;19;20003;-70
2023/05/17 13:31:09;;;;;;;5.13;2.42;;;;;;;;;;7369701;19;20009;-70
2023/05/17 13:33:35;;;;;;;8.95;2.35;;;;;;;;;;7393616;19;20468;-70
2023/05/17 13:36:00;;;;;;;5.90;2.53;;;;;;;;;;7369563;19;20543;-70
2023/05/17 13:38:26;;;;;;;7.50;2.10;;;;;;;;;;7368714;19;20514;-70
2023/05/17 13:40:51;;;;;;;4.55;2.30;;;;;;;;;;7369185;19;20444;-70
2023/05/17 13:43:17;;;;;;;6.05;1.98;;;;;;;;;;7369481;19;20540;-70
2023/05/17 13:45:42;;;;;;;6.53;2.35;;;;;;;;;;7389218;19;20439;-70
2023/05/17 13:48:07;;;;;;;7.07;2.10;;;;;;;;;;7366455;19;20011;-70
2023/05/17 13:50:33;;;;;;;7.03;2.60;;;;;;;;;;7368741;19;20019;-70
2023/05/17 13:53:00;;;;;;;6.28;2.20;;;;;;;;;;7369901;19;20048;-70
2023/05/17 13:55:26;;;;;;;4.30;1.88;;;;;;;;;;7369059;19;20032;-70
2023/05/17 13:57:51;;;;;;;7.72;2.35;;;;;;;;;;7388750;19;20532;-70
2023/05/17 14:00:17;;;;;;;7.97;2.58;;;;;;;;;;7368012;19;20046;-70
2023/05/17 14:02:42;;;;;;;5.10;2.10;;;;;;;;;;7368303;19;20013;-70
2023/05/17 14:05:09;;;;;;;5.95;2.25;;;;;;;;;;7369143;19;20073;-70
2023/05/17 14:07:40;;;;;;;6.45;2.10;;;;;;;;;;7368300;19;20021;-69
2023/05/17 14:10:06;;;;;;;6.13;2.50;;;;;;;;;;7380361;19;20011;-70
2023/05/17 14:12:32;;;;;;;6.90;2.38;;;;;;;;;;7390032;19;20006;-70
2023/05/17 14:14:57;;;;;;;7.60;2.15;;;;;;;;;;7369327;19;20114;-70
2023/05/17 14:17:22;;;;;;;5.70;2.20;;;;;;;;;;7369150;19;20030;-70
2023/05/17 14:19:48;;;;;;;7.65;2.55;;;;;;;;;;7369114;19;20039;-70
2023/05/17 14:22:13;;;;;;;7.90;3.15;;;;;;;;;;7366993;19;20015;-70
2023/05/17 14:24:38;;;;;;;8.02;2.50;;;;;;;;;;7389882;19;20090;-70
2023/05/17 14:27:04;;;;;;;6.80;1.90;;;;;;;;;;7365424;19;20082;-70
2023/05/17 14:29:30;;;;;;;7.68;2.00;;;;;;;;;;7368453;19;20027;-70
2023/05/17 14:31:55;;;;;;;6.28;1.80;;;;;;;;;;7367162;19;20023;-70
2023/05/17 14:34:21;;;;;;;5.22;1.98;;;;;;;;;;7368045;19;20600;-69
2023/05/17 14:36:46;;;;;;;12.30;2.70;;;;;;;;;;7386562;19;20013;-70
2023/05/17 14:39:12;;;;;;;7.30;2.00;;;;;;;;;;7365692;19;20481;-70
2023/05/17 14:41:38;;;;;;;13.82;2.55;;;;;;;;;;7366326;19;20018;-70